sensor_id;sensor_type;location;lat;lon;timestamp;P1;durP1;ratioP1;P2;durP2;ratioP2
3491;SDS011;1760;52.480;13.422;2022-08-20T00:02:21;13.87;;;10.93;;
3491;SDS011;1760;52.480;13.422;2022-08-20T00:04:48;15.33;;;11.53;;
3491;SDS011;1760;52.480;13.422;2022-08-20T00:07:15;12.33;;;9.80;;
3491;SDS011;1760;52.480;13.422;2022-08-20T00:09:42;12.43;;;11.07;;
3491;SDS011;1760;52.480;13.422;2022-08-20T00:12:10;15.67;;;10.97;;
3491;SDS011;1760;52.480;13.422;2022-08-20T00:14:39;16.47;;;11.07;;
3491;SDS011;1760;52.480;13.422;2022-08-20T00:17:06;14.33;;;11.30;;
3491;SDS011;1760;52.480;13.422;2022-08-20T00:19:33;14.30;;;11.77;;
3491;SDS011;1760;52.480;13.422;2022-08-20T00:22:00;13.80;;;11.70;;
3491;SDS011;1760;52.480;13.422;2022-08-20T00:24:27;12.70;;;10.53;;
3491;SDS011;1760;52.480;13.422;2022-08-20T00:26:54;12.73;;;10.37;;
3491;SDS011;1760;52.480;13.422;2022-08-20T00:29:20;21.97;;;13.23;;
3491;SDS011;1760;52.480;13.422;2022-08-20T00:31:49;18.73;;;13.10;;
3491;SDS011;1760;52.480;13.422;2022-08-20T00:34:16;15.90;;;12.03;;
3491;SDS011;1760;52.480;13.422;2022-08-20T00:36:43;17.40;;;12.23;;
3491;SDS011;1760;52.480;13.422;2022-08-20T00:39:11;16.77;;;12.07;;
3491;SDS011;1760;52.480;13.422;2022-08-20T00:41:38;19.60;;;12.27;;
3491;SDS011;1760;52.480;13.422;2022-08-20T00:44:07;16.33;;;12.77;;
3491;SDS011;1760;52.480;13.422;2022-08-20T00:46:37;17.37;;;12.30;;
3491;SDS011;1760;52.480;13.422;2022-08-20T00:49:07;14.90;;;11.80;;
3491;SDS011;1760;52.480;13.422;2022-08-20T00:51:38;15.37;;;12.20;;
3491;SDS011;1760;52.480;13.422;2022-08-20T00:54:08;19.43;;;11.80;;
3491;SDS011;1760;52.480;13.422;2022-08-20T00:56:39;17.93;;;13.73;;
3491;SDS011;1760;52.480;13.422;2022-08-20T00:59:08;14.63;;;11.33;;
3491;SDS011;1760;52.480;13.422;2022-08-20T01:01:38;16.60;;;10.73;;
3491;SDS011;1760;52.480;13.422;2022-08-20T01:04:07;16.43;;;12.10;;
3491;SDS011;1760;52.480;13.422;2022-08-20T01:06:35;19.17;;;14.30;;
3491;SDS011;1760;52.480;13.422;2022-08-20T01:09:02;14.90;;;11.87;;
3491;SDS011;1760;52.480;13.422;2022-08-20T01:11:29;17.00;;;12.60;;
3491;SDS011;1760;52.480;13.422;2022-08-20T01:13:58;19.57;;;12.83;;
3491;SDS011;1760;52.480;13.422;2022-08-20T01:16:27;16.80;;;11.87;;
3491;SDS011;1760;52.480;13.422;2022-08-20T01:18:56;16.00;;;11.30;;
3491;SDS011;1760;52.480;13.422;2022-08-20T01:21:26;16.60;;;13.13;;
3491;SDS011;1760;52.480;13.422;2022-08-20T01:23:58;15.17;;;12.20;;
3491;SDS011;1760;52.480;13.422;2022-08-20T01:26:46;15.40;;;11.50;;
3491;SDS011;1760;52.480;13.422;2022-08-20T01:29:15;15.90;;;12.00;;
3491;SDS011;1760;52.480;13.422;2022-08-20T01:31:46;14.60;;;12.23;;
3491;SDS011;1760;52.480;13.422;2022-08-20T01:34:15;14.43;;;11.10;;
3491;SDS011;1760;52.480;13.422;2022-08-20T01:36:45;13.80;;;11.23;;
3491;SDS011;1760;52.480;13.422;2022-08-20T01:39:17;16.40;;;12.77;;
3491;SDS011;1760;52.480;13.422;2022-08-20T01:41:56;13.90;;;11.00;;
3491;SDS011;1760;52.480;13.422;2022-08-20T01:44:34;16.63;;;11.70;;
3491;SDS011;1760;52.480;13.422;2022-08-20T01:47:13;15.03;;;11.00;;
3491;SDS011;1760;52.480;13.422;2022-08-20T01:49:42;15.33;;;11.40;;
3491;SDS011;1760;52.480;13.422;2022-08-20T01:52:15;15.77;;;11.77;;
3491;SDS011;1760;52.480;13.422;2022-08-20T01:54:47;15.07;;;11.40;;
3491;SDS011;1760;52.480;13.422;2022-08-20T01:57:16;15.83;;;11.27;;
3491;SDS011;1760;52.480;13.422;2022-08-20T01:59:46;13.97;;;11.23;;
3491;SDS011;1760;52.480;13.422;2022-08-20T02:02:15;16.53;;;12.67;;
3491;SDS011;1760;52.480;13.422;2022-08-20T02:04:41;10.63;;;9.10;;
3491;SDS011;1760;52.480;13.422;2022-08-20T02:07:11;11.83;;;8.37;;
3491;SDS011;1760;52.480;13.422;2022-08-20T02:09:40;10.90;;;8.77;;
3491;SDS011;1760;52.480;13.422;2022-08-20T02:12:09;8.23;;;7.30;;
3491;SDS011;1760;52.480;13.422;2022-08-20T02:14:39;8.17;;;7.07;;
3491;SDS011;1760;52.480;13.422;2022-08-20T02:17:08;7.93;;;6.80;;
3491;SDS011;1760;52.480;13.422;2022-08-20T02:19:36;8.40;;;7.27;;
3491;SDS011;1760;52.480;13.422;2022-08-20T02:22:08;8.60;;;7.07;;
3491;SDS011;1760;52.480;13.422;2022-08-20T02:24:41;9.07;;;8.03;;
3491;SDS011;1760;52.480;13.422;2022-08-20T02:27:08;10.80;;;9.03;;
3491;SDS011;1760;52.480;13.422;2022-08-20T02:29:35;9.03;;;6.77;;
3491;SDS011;1760;52.480;13.422;2022-08-20T02:32:03;8.57;;;7.20;;
3491;SDS011;1760;52.480;13.422;2022-08-20T02:34:31;10.70;;;9.40;;
3491;SDS011;1760;52.480;13.422;2022-08-20T02:36:59;9.30;;;8.20;;
3491;SDS011;1760;52.480;13.422;2022-08-20T02:39:27;9.03;;;8.03;;
3491;SDS011;1760;52.480;13.422;2022-08-20T02:41:53;10.60;;;8.23;;
3491;SDS011;1760;52.480;13.422;2022-08-20T02:44:20;8.67;;;7.03;;
3491;SDS011;1760;52.480;13.422;2022-08-20T02:46:47;9.80;;;8.60;;
3491;SDS011;1760;52.480;13.422;2022-08-20T02:49:16;8.23;;;7.37;;
3491;SDS011;1760;52.480;13.422;2022-08-20T02:51:44;9.37;;;7.60;;
3491;SDS011;1760;52.480;13.422;2022-08-20T02:54:12;8.57;;;7.23;;
3491;SDS011;1760;52.480;13.422;2022-08-20T02:56:39;10.00;;;8.43;;
3491;SDS011;1760;52.480;13.422;2022-08-20T02:59:06;8.23;;;7.43;;
3491;SDS011;1760;52.480;13.422;2022-08-20T03:01:36;11.80;;;9.20;;
3491;SDS011;1760;52.480;13.422;2022-08-20T03:04:03;12.50;;;8.83;;
3491;SDS011;1760;52.480;13.422;2022-08-20T03:06:31;13.80;;;8.10;;
3491;SDS011;1760;52.480;13.422;2022-08-20T03:08:58;12.07;;;9.87;;
3491;SDS011;1760;52.480;13.422;2022-08-20T03:11:26;14.30;;;9.87;;
3491;SDS011;1760;52.480;13.422;2022-08-20T03:13:53;14.63;;;10.70;;
3491;SDS011;1760;52.480;13.422;2022-08-20T03:16:20;13.10;;;9.37;;
3491;SDS011;1760;52.480;13.422;2022-08-20T03:18:47;15.17;;;10.33;;
3491;SDS011;1760;52.480;13.422;2022-08-20T03:21:17;16.90;;;10.63;;
3491;SDS011;1760;52.480;13.422;2022-08-20T03:23:45;17.93;;;12.23;;
3491;SDS011;1760;52.480;13.422;2022-08-20T03:26:12;14.13;;;10.80;;
3491;SDS011;1760;52.480;13.422;2022-08-20T03:28:40;16.47;;;13.00;;
3491;SDS011;1760;52.480;13.422;2022-08-20T03:31:08;17.20;;;13.10;;
3491;SDS011;1760;52.480;13.422;2022-08-20T03:33:35;16.50;;;13.80;;
3491;SDS011;1760;52.480;13.422;2022-08-20T03:36:03;21.73;;;15.03;;
3491;SDS011;1760;52.480;13.422;2022-08-20T03:38:31;19.17;;;14.70;;
3491;SDS011;1760;52.480;13.422;2022-08-20T03:41:00;29.63;;;14.83;;
3491;SDS011;1760;52.480;13.422;2022-08-20T03:43:27;18.50;;;13.87;;
3491;SDS011;1760;52.480;13.422;2022-08-20T03:45:54;18.93;;;14.67;;
3491;SDS011;1760;52.480;13.422;2022-08-20T03:48:21;24.30;;;15.43;;
3491;SDS011;1760;52.480;13.422;2022-08-20T03:50:49;19.70;;;14.87;;
3491;SDS011;1760;52.480;13.422;2022-08-20T03:53:17;21.10;;;14.27;;
3491;SDS011;1760;52.480;13.422;2022-08-20T03:55:47;18.10;;;13.17;;
3491;SDS011;1760;52.480;13.422;2022-08-20T03:58:21;16.77;;;13.43;;
3491;SDS011;1760;52.480;13.422;2022-08-20T04:00:49;23.57;;;14.43;;
3491;SDS011;1760;52.480;13.422;2022-08-20T04:03:16;22.57;;;14.97;;
3491;SDS011;1760;52.480;13.422;2022-08-20T04:05:43;19.00;;;15.13;;
3491;SDS011;1760;52.480;13.422;2022-08-20T04:08:12;20.37;;;14.53;;
3491;SDS011;1760;52.480;13.422;2022-08-20T04:10:41;25.60;;;15.10;;
3491;SDS011;1760;52.480;13.422;2022-08-20T04:13:08;22.73;;;14.70;;
3491;SDS011;1760;52.480;13.422;2022-08-20T04:15:36;21.40;;;16.00;;
3491;SDS011;1760;52.480;13.422;2022-08-20T04:18:04;18.80;;;13.07;;
3491;SDS011;1760;52.480;13.422;2022-08-20T04:20:33;24.67;;;16.87;;
3491;SDS011;1760;52.480;13.422;2022-08-20T04:23:01;22.80;;;15.50;;
3491;SDS011;1760;52.480;13.422;2022-08-20T04:25:29;18.43;;;13.20;;
3491;SDS011;1760;52.480;13.422;2022-08-20T04:27:58;23.00;;;14.27;;
3491;SDS011;1760;52.480;13.422;2022-08-20T04:30:27;17.47;;;13.90;;
3491;SDS011;1760;52.480;13.422;2022-08-20T04:32:58;18.83;;;13.50;;
3491;SDS011;1760;52.480;13.422;2022-08-20T04:35:31;19.53;;;13.03;;
3491;SDS011;1760;52.480;13.422;2022-08-20T04:37:58;18.23;;;13.57;;
3491;SDS011;1760;52.480;13.422;2022-08-20T04:40:26;17.63;;;12.50;;
3491;SDS011;1760;52.480;13.422;2022-08-20T04:43:11;19.30;;;14.17;;
3491;SDS011;1760;52.480;13.422;2022-08-20T04:45:38;19.40;;;13.03;;
3491;SDS011;1760;52.480;13.422;2022-08-20T04:48:06;18.37;;;13.67;;
3491;SDS011;1760;52.480;13.422;2022-08-20T04:50:34;16.53;;;12.40;;
3491;SDS011;1760;52.480;13.422;2022-08-20T04:53:02;15.80;;;12.77;;
3491;SDS011;1760;52.480;13.422;2022-08-20T04:55:30;19.70;;;13.50;;
3491;SDS011;1760;52.480;13.422;2022-08-20T04:58:01;18.80;;;13.20;;
3491;SDS011;1760;52.480;13.422;2022-08-20T05:00:29;20.60;;;13.77;;
3491;SDS011;1760;52.480;13.422;2022-08-20T05:02:56;19.00;;;14.60;;
3491;SDS011;1760;52.480;13.422;2022-08-20T05:05:25;19.40;;;13.60;;
3491;SDS011;1760;52.480;13.422;2022-08-20T05:07:52;19.43;;;13.57;;
3491;SDS011;1760;52.480;13.422;2022-08-20T05:10:19;15.30;;;11.40;;
3491;SDS011;1760;52.480;13.422;2022-08-20T05:12:47;16.57;;;12.83;;
3491;SDS011;1760;52.480;13.422;2022-08-20T05:15:14;21.53;;;13.90;;
3491;SDS011;1760;52.480;13.422;2022-08-20T05:17:41;19.43;;;14.63;;
3491;SDS011;1760;52.480;13.422;2022-08-20T05:20:10;16.13;;;13.60;;
3491;SDS011;1760;52.480;13.422;2022-08-20T05:22:42;17.20;;;12.60;;
3491;SDS011;1760;52.480;13.422;2022-08-20T05:25:09;15.63;;;13.27;;
3491;SDS011;1760;52.480;13.422;2022-08-20T05:27:36;19.83;;;13.10;;
3491;SDS011;1760;52.480;13.422;2022-08-20T05:30:07;20.47;;;15.27;;
3491;SDS011;1760;52.480;13.422;2022-08-20T05:32:35;16.93;;;12.33;;
3491;SDS011;1760;52.480;13.422;2022-08-20T05:35:03;19.50;;;12.90;;
3491;SDS011;1760;52.480;13.422;2022-08-20T05:37:32;24.47;;;15.60;;
3491;SDS011;1760;52.480;13.422;2022-08-20T05:40:01;17.30;;;13.33;;
3491;SDS011;1760;52.480;13.422;2022-08-20T05:42:34;20.50;;;15.00;;
3491;SDS011;1760;52.480;13.422;2022-08-20T05:45:01;20.60;;;14.07;;
3491;SDS011;1760;52.480;13.422;2022-08-20T05:47:29;24.43;;;14.93;;
3491;SDS011;1760;52.480;13.422;2022-08-20T05:49:55;20.70;;;16.03;;
3491;SDS011;1760;52.480;13.422;2022-08-20T05:52:22;20.53;;;15.33;;
3491;SDS011;1760;52.480;13.422;2022-08-20T05:54:49;21.93;;;13.90;;
3491;SDS011;1760;52.480;13.422;2022-08-20T05:57:18;21.50;;;13.83;;
3491;SDS011;1760;52.480;13.422;2022-08-20T05:59:45;22.50;;;14.37;;
3491;SDS011;1760;52.480;13.422;2022-08-20T06:02:12;21.07;;;15.70;;
3491;SDS011;1760;52.480;13.422;2022-08-20T06:04:53;23.20;;;16.40;;
3491;SDS011;1760;52.480;13.422;2022-08-20T06:07:20;19.17;;;13.03;;
3491;SDS011;1760;52.480;13.422;2022-08-20T06:09:48;20.43;;;13.87;;
3491;SDS011;1760;52.480;13.422;2022-08-20T06:12:15;16.13;;;13.27;;
3491;SDS011;1760;52.480;13.422;2022-08-20T06:14:43;21.63;;;14.80;;
3491;SDS011;1760;52.480;13.422;2022-08-20T06:17:12;16.37;;;12.00;;
3491;SDS011;1760;52.480;13.422;2022-08-20T06:19:40;17.37;;;14.37;;
3491;SDS011;1760;52.480;13.422;2022-08-20T06:22:08;16.97;;;13.60;;
3491;SDS011;1760;52.480;13.422;2022-08-20T06:24:37;19.43;;;13.23;;
3491;SDS011;1760;52.480;13.422;2022-08-20T06:27:04;17.90;;;13.47;;
3491;SDS011;1760;52.480;13.422;2022-08-20T06:29:32;21.20;;;14.10;;
3491;SDS011;1760;52.480;13.422;2022-08-20T06:32:02;19.73;;;13.60;;
3491;SDS011;1760;52.480;13.422;2022-08-20T06:34:29;21.33;;;13.50;;
3491;SDS011;1760;52.480;13.422;2022-08-20T06:36:56;15.80;;;12.30;;
3491;SDS011;1760;52.480;13.422;2022-08-20T06:39:24;18.17;;;13.33;;
3491;SDS011;1760;52.480;13.422;2022-08-20T06:41:53;20.37;;;13.50;;
3491;SDS011;1760;52.480;13.422;2022-08-20T06:44:20;17.90;;;12.70;;
3491;SDS011;1760;52.480;13.422;2022-08-20T06:46:46;18.00;;;13.77;;
3491;SDS011;1760;52.480;13.422;2022-08-20T06:49:15;19.73;;;14.30;;
3491;SDS011;1760;52.480;13.422;2022-08-20T06:51:42;20.73;;;14.40;;
3491;SDS011;1760;52.480;13.422;2022-08-20T06:54:09;17.50;;;12.77;;
3491;SDS011;1760;52.480;13.422;2022-08-20T06:56:36;18.07;;;13.40;;
3491;SDS011;1760;52.480;13.422;2022-08-20T06:59:03;17.80;;;14.00;;
3491;SDS011;1760;52.480;13.422;2022-08-20T07:01:30;16.90;;;13.47;;
3491;SDS011;1760;52.480;13.422;2022-08-20T07:03:56;21.80;;;15.67;;
3491;SDS011;1760;52.480;13.422;2022-08-20T07:06:25;22.87;;;15.10;;
3491;SDS011;1760;52.480;13.422;2022-08-20T07:08:53;22.80;;;15.57;;
3491;SDS011;1760;52.480;13.422;2022-08-20T07:11:20;19.17;;;14.70;;
3491;SDS011;1760;52.480;13.422;2022-08-20T07:13:47;19.00;;;14.57;;
3491;SDS011;1760;52.480;13.422;2022-08-20T07:16:14;21.17;;;15.17;;
3491;SDS011;1760;52.480;13.422;2022-08-20T07:18:43;20.13;;;15.33;;
3491;SDS011;1760;52.480;13.422;2022-08-20T07:21:09;21.17;;;15.53;;
3491;SDS011;1760;52.480;13.422;2022-08-20T07:23:38;17.87;;;13.90;;
3491;SDS011;1760;52.480;13.422;2022-08-20T07:26:06;19.87;;;16.80;;
3491;SDS011;1760;52.480;13.422;2022-08-20T07:28:33;19.97;;;15.03;;
3491;SDS011;1760;52.480;13.422;2022-08-20T07:31:00;20.97;;;15.80;;
3491;SDS011;1760;52.480;13.422;2022-08-20T07:33:44;19.33;;;13.50;;
3491;SDS011;1760;52.480;13.422;2022-08-20T07:36:11;18.90;;;13.90;;
3491;SDS011;1760;52.480;13.422;2022-08-20T07:38:39;19.57;;;16.13;;
3491;SDS011;1760;52.480;13.422;2022-08-20T07:41:10;19.53;;;16.60;;
3491;SDS011;1760;52.480;13.422;2022-08-20T07:43:39;23.27;;;14.73;;
3491;SDS011;1760;52.480;13.422;2022-08-20T07:46:07;24.60;;;18.57;;
3491;SDS011;1760;52.480;13.422;2022-08-20T07:48:34;25.00;;;16.00;;
3491;SDS011;1760;52.480;13.422;2022-08-20T07:51:04;18.47;;;15.40;;
3491;SDS011;1760;52.480;13.422;2022-08-20T07:53:32;20.90;;;16.37;;
3491;SDS011;1760;52.480;13.422;2022-08-20T07:56:02;29.73;;;15.30;;
3491;SDS011;1760;52.480;13.422;2022-08-20T07:58:34;21.80;;;16.03;;
3491;SDS011;1760;52.480;13.422;2022-08-20T08:01:03;28.10;;;15.90;;
3491;SDS011;1760;52.480;13.422;2022-08-20T08:03:31;21.17;;;15.93;;
3491;SDS011;1760;52.480;13.422;2022-08-20T08:05:58;29.30;;;16.67;;
3491;SDS011;1760;52.480;13.422;2022-08-20T08:08:26;24.73;;;16.93;;
3491;SDS011;1760;52.480;13.422;2022-08-20T08:10:54;21.73;;;16.50;;
3491;SDS011;1760;52.480;13.422;2022-08-20T08:13:25;21.10;;;14.80;;
3491;SDS011;1760;52.480;13.422;2022-08-20T08:15:55;25.33;;;17.20;;
3491;SDS011;1760;52.480;13.422;2022-08-20T08:18:26;25.03;;;16.47;;
3491;SDS011;1760;52.480;13.422;2022-08-20T08:20:55;22.50;;;16.67;;
3491;SDS011;1760;52.480;13.422;2022-08-20T08:23:22;23.57;;;17.23;;
3491;SDS011;1760;52.480;13.422;2022-08-20T08:25:50;24.57;;;17.60;;
3491;SDS011;1760;52.480;13.422;2022-08-20T08:28:17;21.80;;;16.10;;
3491;SDS011;1760;52.480;13.422;2022-08-20T08:30:47;25.70;;;18.00;;
3491;SDS011;1760;52.480;13.422;2022-08-20T08:33:17;25.10;;;17.70;;
3491;SDS011;1760;52.480;13.422;2022-08-20T08:35:55;28.70;;;21.87;;
3491;SDS011;1760;52.480;13.422;2022-08-20T08:38:23;22.03;;;15.30;;
3491;SDS011;1760;52.480;13.422;2022-08-20T08:40:51;28.20;;;18.47;;
3491;SDS011;1760;52.480;13.422;2022-08-20T08:43:21;27.63;;;19.40;;
3491;SDS011;1760;52.480;13.422;2022-08-20T08:45:52;27.83;;;19.47;;
3491;SDS011;1760;52.480;13.422;2022-08-20T08:48:25;24.67;;;17.83;;
3491;SDS011;1760;52.480;13.422;2022-08-20T08:50:59;26.63;;;19.20;;
3491;SDS011;1760;52.480;13.422;2022-08-20T08:53:33;26.80;;;18.67;;
3491;SDS011;1760;52.480;13.422;2022-08-20T08:56:04;26.70;;;17.90;;
3491;SDS011;1760;52.480;13.422;2022-08-20T08:58:31;25.67;;;19.00;;
3491;SDS011;1760;52.480;13.422;2022-08-20T09:01:01;26.87;;;19.13;;
3491;SDS011;1760;52.480;13.422;2022-08-20T09:03:30;29.83;;;19.83;;
3491;SDS011;1760;52.480;13.422;2022-08-20T09:06:02;28.60;;;19.00;;
3491;SDS011;1760;52.480;13.422;2022-08-20T09:08:30;24.50;;;17.43;;
3491;SDS011;1760;52.480;13.422;2022-08-20T09:11:00;27.97;;;17.87;;
3491;SDS011;1760;52.480;13.422;2022-08-20T09:13:30;22.67;;;19.00;;
3491;SDS011;1760;52.480;13.422;2022-08-20T09:15:57;28.50;;;19.53;;
3491;SDS011;1760;52.480;13.422;2022-08-20T09:18:25;31.90;;;19.07;;
3491;SDS011;1760;52.480;13.422;2022-08-20T09:20:52;27.27;;;17.67;;
3491;SDS011;1760;52.480;13.422;2022-08-20T09:23:19;29.87;;;18.57;;
3491;SDS011;1760;52.480;13.422;2022-08-20T09:25:48;28.60;;;17.87;;
3491;SDS011;1760;52.480;13.422;2022-08-20T09:28:17;26.20;;;18.30;;
3491;SDS011;1760;52.480;13.422;2022-08-20T09:30:44;30.70;;;18.43;;
3491;SDS011;1760;52.480;13.422;2022-08-20T09:33:11;27.60;;;19.30;;
3491;SDS011;1760;52.480;13.422;2022-08-20T09:35:39;34.10;;;23.93;;
3491;SDS011;1760;52.480;13.422;2022-08-20T09:38:08;25.90;;;17.53;;
3491;SDS011;1760;52.480;13.422;2022-08-20T09:40:35;28.47;;;19.00;;
3491;SDS011;1760;52.480;13.422;2022-08-20T09:43:03;27.47;;;18.50;;
3491;SDS011;1760;52.480;13.422;2022-08-20T09:45:30;27.97;;;16.67;;
3491;SDS011;1760;52.480;13.422;2022-08-20T09:47:57;24.00;;;16.40;;
3491;SDS011;1760;52.480;13.422;2022-08-20T09:50:24;29.40;;;18.60;;
3491;SDS011;1760;52.480;13.422;2022-08-20T09:52:54;26.37;;;18.50;;
3491;SDS011;1760;52.480;13.422;2022-08-20T09:55:23;23.90;;;17.10;;
3491;SDS011;1760;52.480;13.422;2022-08-20T09:57:56;21.10;;;15.23;;
3491;SDS011;1760;52.480;13.422;2022-08-20T10:00:24;22.03;;;17.13;;
3491;SDS011;1760;52.480;13.422;2022-08-20T10:02:51;20.57;;;15.50;;
3491;SDS011;1760;52.480;13.422;2022-08-20T10:05:19;21.87;;;15.77;;
3491;SDS011;1760;52.480;13.422;2022-08-20T10:07:46;26.60;;;16.87;;
3491;SDS011;1760;52.480;13.422;2022-08-20T10:10:14;23.13;;;15.50;;
3491;SDS011;1760;52.480;13.422;2022-08-20T10:12:41;21.70;;;15.40;;
3491;SDS011;1760;52.480;13.422;2022-08-20T10:15:10;21.77;;;15.57;;
3491;SDS011;1760;52.480;13.422;2022-08-20T10:17:38;25.47;;;16.30;;
3491;SDS011;1760;52.480;13.422;2022-08-20T10:20:07;22.30;;;14.97;;
3491;SDS011;1760;52.480;13.422;2022-08-20T10:22:35;21.40;;;15.03;;
3491;SDS011;1760;52.480;13.422;2022-08-20T10:25:03;18.83;;;14.10;;
3491;SDS011;1760;52.480;13.422;2022-08-20T10:27:31;19.47;;;14.37;;
3491;SDS011;1760;52.480;13.422;2022-08-20T10:29:58;18.50;;;13.30;;
3491;SDS011;1760;52.480;13.422;2022-08-20T10:32:25;26.87;;;14.63;;
3491;SDS011;1760;52.480;13.422;2022-08-20T10:34:52;18.50;;;13.50;;
3491;SDS011;1760;52.480;13.422;2022-08-20T10:37:20;24.10;;;14.43;;
3491;SDS011;1760;52.480;13.422;2022-08-20T10:39:48;16.57;;;12.60;;
3491;SDS011;1760;52.480;13.422;2022-08-20T10:42:15;15.20;;;12.20;;
3491;SDS011;1760;52.480;13.422;2022-08-20T10:44:43;17.50;;;12.90;;
3491;SDS011;1760;52.480;13.422;2022-08-20T10:47:16;13.23;;;10.87;;
3491;SDS011;1760;52.480;13.422;2022-08-20T10:49:46;16.13;;;11.43;;
3491;SDS011;1760;52.480;13.422;2022-08-20T10:52:14;20.60;;;10.83;;
3491;SDS011;1760;52.480;13.422;2022-08-20T10:54:41;16.50;;;11.87;;
3491;SDS011;1760;52.480;13.422;2022-08-20T10:57:09;16.57;;;11.57;;
3491;SDS011;1760;52.480;13.422;2022-08-20T10:59:39;17.93;;;11.30;;
3491;SDS011;1760;52.480;13.422;2022-08-20T11:02:08;11.40;;;9.00;;
3491;SDS011;1760;52.480;13.422;2022-08-20T11:04:35;20.43;;;11.17;;
3491;SDS011;1760;52.480;13.422;2022-08-20T11:07:12;13.13;;;10.10;;
3491;SDS011;1760;52.480;13.422;2022-08-20T11:09:41;13.87;;;10.33;;
3491;SDS011;1760;52.480;13.422;2022-08-20T11:12:09;13.77;;;9.30;;
3491;SDS011;1760;52.480;13.422;2022-08-20T11:14:36;14.70;;;10.73;;
3491;SDS011;1760;52.480;13.422;2022-08-20T11:17:03;11.97;;;9.30;;
3491;SDS011;1760;52.480;13.422;2022-08-20T11:19:32;11.80;;;9.07;;
3491;SDS011;1760;52.480;13.422;2022-08-20T11:22:03;10.03;;;7.50;;
3491;SDS011;1760;52.480;13.422;2022-08-20T11:24:30;11.50;;;8.20;;
3491;SDS011;1760;52.480;13.422;2022-08-20T11:26:57;11.43;;;7.77;;
3491;SDS011;1760;52.480;13.422;2022-08-20T11:29:24;9.67;;;8.60;;
3491;SDS011;1760;52.480;13.422;2022-08-20T11:31:51;9.53;;;7.73;;
3491;SDS011;1760;52.480;13.422;2022-08-20T11:34:17;13.07;;;8.70;;
3491;SDS011;1760;52.480;13.422;2022-08-20T11:36:46;10.40;;;7.00;;
3491;SDS011;1760;52.480;13.422;2022-08-20T11:39:13;9.60;;;7.77;;
3491;SDS011;1760;52.480;13.422;2022-08-20T11:41:40;11.13;;;7.37;;
3491;SDS011;1760;52.480;13.422;2022-08-20T11:44:07;8.50;;;6.47;;
3491;SDS011;1760;52.480;13.422;2022-08-20T11:46:34;9.27;;;8.20;;
3491;SDS011;1760;52.480;13.422;2022-08-20T11:49:00;39.60;;;28.47;;
3491;SDS011;1760;52.480;13.422;2022-08-20T11:51:27;8.97;;;7.60;;
3491;SDS011;1760;52.480;13.422;2022-08-20T11:53:55;7.63;;;6.83;;
3491;SDS011;1760;52.480;13.422;2022-08-20T11:56:22;7.50;;;6.50;;
3491;SDS011;1760;52.480;13.422;2022-08-20T11:58:49;6.63;;;5.63;;
3491;SDS011;1760;52.480;13.422;2022-08-20T12:01:16;7.37;;;5.83;;
3491;SDS011;1760;52.480;13.422;2022-08-20T12:03:43;6.20;;;5.57;;
3491;SDS011;1760;52.480;13.422;2022-08-20T12:06:09;11.17;;;7.03;;
3491;SDS011;1760;52.480;13.422;2022-08-20T12:08:36;8.67;;;6.80;;
3491;SDS011;1760;52.480;13.422;2022-08-20T12:11:04;6.87;;;5.70;;
3491;SDS011;1760;52.480;13.422;2022-08-20T12:13:32;9.23;;;6.67;;
3491;SDS011;1760;52.480;13.422;2022-08-20T12:16:00;7.83;;;6.70;;
3491;SDS011;1760;52.480;13.422;2022-08-20T12:18:28;9.23;;;5.90;;
3491;SDS011;1760;52.480;13.422;2022-08-20T12:20:56;8.13;;;6.70;;
3491;SDS011;1760;52.480;13.422;2022-08-20T12:23:23;8.70;;;5.47;;
3491;SDS011;1760;52.480;13.422;2022-08-20T12:25:50;7.40;;;5.87;;
3491;SDS011;1760;52.480;13.422;2022-08-20T12:28:18;7.10;;;6.40;;
3491;SDS011;1760;52.480;13.422;2022-08-20T12:30:45;7.70;;;6.00;;
3491;SDS011;1760;52.480;13.422;2022-08-20T12:33:11;6.10;;;5.47;;
3491;SDS011;1760;52.480;13.422;2022-08-20T12:35:38;5.80;;;5.23;;
3491;SDS011;1760;52.480;13.422;2022-08-20T12:38:06;7.40;;;5.60;;
3491;SDS011;1760;52.480;13.422;2022-08-20T12:40:33;6.73;;;6.03;;
3491;SDS011;1760;52.480;13.422;2022-08-20T12:43:02;5.93;;;5.20;;
3491;SDS011;1760;52.480;13.422;2022-08-20T12:45:31;8.10;;;5.80;;
3491;SDS011;1760;52.480;13.422;2022-08-20T12:47:59;6.00;;;5.30;;
3491;SDS011;1760;52.480;13.422;2022-08-20T12:50:27;5.50;;;4.90;;
3491;SDS011;1760;52.480;13.422;2022-08-20T12:52:55;7.40;;;5.63;;
3491;SDS011;1760;52.480;13.422;2022-08-20T12:55:25;6.93;;;5.03;;
3491;SDS011;1760;52.480;13.422;2022-08-20T12:57:53;6.30;;;5.70;;
3491;SDS011;1760;52.480;13.422;2022-08-20T13:00:22;6.20;;;5.60;;
3491;SDS011;1760;52.480;13.422;2022-08-20T13:02:53;5.90;;;5.30;;
3491;SDS011;1760;52.480;13.422;2022-08-20T13:05:21;7.00;;;5.77;;
3491;SDS011;1760;52.480;13.422;2022-08-20T13:07:48;5.30;;;4.80;;
3491;SDS011;1760;52.480;13.422;2022-08-20T13:10:18;4.70;;;4.03;;
3491;SDS011;1760;52.480;13.422;2022-08-20T13:12:50;6.03;;;4.60;;
3491;SDS011;1760;52.480;13.422;2022-08-20T13:15:17;5.03;;;4.40;;
3491;SDS011;1760;52.480;13.422;2022-08-20T13:17:44;5.90;;;5.17;;
3491;SDS011;1760;52.480;13.422;2022-08-20T13:20:16;6.87;;;4.50;;
3491;SDS011;1760;52.480;13.422;2022-08-20T13:22:44;6.40;;;5.20;;
3491;SDS011;1760;52.480;13.422;2022-08-20T13:25:13;5.53;;;4.70;;
3491;SDS011;1760;52.480;13.422;2022-08-20T13:27:41;6.30;;;5.00;;
3491;SDS011;1760;52.480;13.422;2022-08-20T13:30:09;5.30;;;4.80;;
3491;SDS011;1760;52.480;13.422;2022-08-20T13:32:38;6.70;;;5.30;;
3491;SDS011;1760;52.480;13.422;2022-08-20T13:35:06;6.13;;;4.83;;
3491;SDS011;1760;52.480;13.422;2022-08-20T13:37:37;5.80;;;5.20;;
3491;SDS011;1760;52.480;13.422;2022-08-20T13:40:05;6.37;;;5.77;;
3491;SDS011;1760;52.480;13.422;2022-08-20T13:42:47;6.80;;;5.33;;
3491;SDS011;1760;52.480;13.422;2022-08-20T13:45:14;6.80;;;6.10;;
3491;SDS011;1760;52.480;13.422;2022-08-20T13:47:41;6.63;;;5.70;;
3491;SDS011;1760;52.480;13.422;2022-08-20T13:50:11;7.90;;;6.30;;
3491;SDS011;1760;52.480;13.422;2022-08-20T13:52:40;7.73;;;6.30;;
3491;SDS011;1760;52.480;13.422;2022-08-20T13:55:09;7.60;;;6.67;;
3491;SDS011;1760;52.480;13.422;2022-08-20T13:57:38;8.70;;;6.30;;
3491;SDS011;1760;52.480;13.422;2022-08-20T14:00:06;7.23;;;6.50;;
3491;SDS011;1760;52.480;13.422;2022-08-20T14:02:36;7.23;;;6.30;;
3491;SDS011;1760;52.480;13.422;2022-08-20T14:05:03;8.87;;;7.20;;
3491;SDS011;1760;52.480;13.422;2022-08-20T14:07:30;8.83;;;6.80;;
3491;SDS011;1760;52.480;13.422;2022-08-20T14:09:59;8.80;;;7.40;;
3491;SDS011;1760;52.480;13.422;2022-08-20T14:12:27;8.47;;;7.10;;
3491;SDS011;1760;52.480;13.422;2022-08-20T14:14:55;17.80;;;10.87;;
3491;SDS011;1760;52.480;13.422;2022-08-20T14:17:23;17.60;;;11.53;;
3491;SDS011;1760;52.480;13.422;2022-08-20T14:19:52;15.20;;;12.47;;
3491;SDS011;1760;52.480;13.422;2022-08-20T14:22:22;8.90;;;7.60;;
3491;SDS011;1760;52.480;13.422;2022-08-20T14:24:50;10.43;;;7.70;;
3491;SDS011;1760;52.480;13.422;2022-08-20T14:27:19;12.17;;;8.23;;
3491;SDS011;1760;52.480;13.422;2022-08-20T14:29:48;10.57;;;7.37;;
3491;SDS011;1760;52.480;13.422;2022-08-20T14:32:16;8.30;;;7.37;;
3491;SDS011;1760;52.480;13.422;2022-08-20T14:34:44;10.10;;;8.30;;
3491;SDS011;1760;52.480;13.422;2022-08-20T14:37:12;11.10;;;8.57;;
3491;SDS011;1760;52.480;13.422;2022-08-20T14:39:40;11.77;;;8.97;;
3491;SDS011;1760;52.480;13.422;2022-08-20T14:42:08;9.67;;;8.33;;
3491;SDS011;1760;52.480;13.422;2022-08-20T14:44:37;9.20;;;7.57;;
3491;SDS011;1760;52.480;13.422;2022-08-20T14:47:10;10.20;;;8.00;;
3491;SDS011;1760;52.480;13.422;2022-08-20T14:49:39;11.90;;;9.17;;